<?xml version="1.0" encoding="UTF-8" standalone="no" ?>
<gpx xmlns="http://www.topografix.com/GPX/1/1" xmlns:xsi="http://www.w3.org/2001/XMLSchema-instance" xsi:schemaLocation="http://www.topografix.com/GPX/1/1 http://www.topografix.com/GPX/1/1/gpx.xsd" version="1.1" creator="VisuGPX - https://www.visugpx.com">
  <metadata>
    <name>1 semaine rando en vallée du Lot et du Célé</name>
    <desc><![CDATA[5 boucle en étoile dans la région de Cabreret - Saint Cirq La Popie (dans le Lot)]]></desc>
  </metadata>
  <trk>
    <name><![CDATA[04 Bouzies 35 km]]></name>
    <trkseg>
      <trkpt lat="44.50682" lon="1.63331">
        <ele>319</ele>
        <time>2018-03-25T20:31:47Z</time>
      </trkpt>
      <trkpt lat="44.50767" lon="1.63179">
        <ele>314</ele>
        <time>2018-03-25T20:32:47Z</time>
      </trkpt>
      <trkpt lat="44.50743" lon="1.62978">
        <ele>315</ele>
        <time>2018-03-25T20:33:47Z</time>
      </trkpt>
      <trkpt lat="44.50734" lon="1.62903">
        <ele>315</ele>
        <time>2018-03-25T20:34:47Z</time>
      </trkpt>
      <trkpt lat="44.5071" lon="1.62696">
        <ele>318</ele>
        <time>2018-03-25T20:35:47Z</time>
      </trkpt>
      <trkpt lat="44.50668" lon="1.62552">
        <ele>316</ele>
        <time>2018-03-25T20:36:47Z</time>
      </trkpt>
      <trkpt lat="44.50645" lon="1.62445">
        <ele>323</ele>
        <time>2018-03-25T20:37:47Z</time>
      </trkpt>
      <trkpt lat="44.50586" lon="1.62396">
        <ele>327</ele>
        <time>2018-03-25T20:38:47Z</time>
      </trkpt>
      <trkpt lat="44.50563" lon="1.62314">
        <ele>333</ele>
        <time>2018-03-25T20:39:47Z</time>
      </trkpt>
      <trkpt lat="44.50604" lon="1.62263">
        <ele>336</ele>
        <time>2018-03-25T20:40:47Z</time>
      </trkpt>
      <trkpt lat="44.50598" lon="1.62169">
        <ele>338</ele>
        <time>2018-03-25T20:41:47Z</time>
      </trkpt>
      <trkpt lat="44.50629" lon="1.62049">
        <ele>338</ele>
        <time>2018-03-25T20:42:47Z</time>
      </trkpt>
      <trkpt lat="44.50628" lon="1.61955">
        <ele>338</ele>
        <time>2018-03-25T20:43:47Z</time>
      </trkpt>
      <trkpt lat="44.50659" lon="1.61823">
        <ele>337</ele>
        <time>2018-03-25T20:44:47Z</time>
      </trkpt>
      <trkpt lat="44.50649" lon="1.61591">
        <ele>331</ele>
        <time>2018-03-25T20:45:47Z</time>
      </trkpt>
      <trkpt lat="44.50536" lon="1.61529">
        <ele>324</ele>
        <time>2018-03-25T20:46:47Z</time>
      </trkpt>
      <trkpt lat="44.50549" lon="1.61479">
        <ele>326</ele>
        <time>2018-03-25T20:47:47Z</time>
      </trkpt>
      <trkpt lat="44.50562" lon="1.61422">
        <ele>329</ele>
        <time>2018-03-25T20:48:47Z</time>
      </trkpt>
      <trkpt lat="44.50394" lon="1.61167">
        <ele>334</ele>
        <time>2018-03-25T20:49:47Z</time>
      </trkpt>
      <trkpt lat="44.50357" lon="1.61004">
        <ele>336</ele>
        <time>2018-03-25T20:50:47Z</time>
      </trkpt>
      <trkpt lat="44.5033" lon="1.60973">
        <ele>336</ele>
        <time>2018-03-25T20:51:47Z</time>
      </trkpt>
      <trkpt lat="44.50249" lon="1.60974">
        <ele>337</ele>
        <time>2018-03-25T20:52:47Z</time>
      </trkpt>
      <trkpt lat="44.50194" lon="1.60824">
        <ele>336</ele>
        <time>2018-03-25T20:53:47Z</time>
      </trkpt>
      <trkpt lat="44.50076" lon="1.60655">
        <ele>327</ele>
        <time>2018-03-25T20:54:47Z</time>
      </trkpt>
      <trkpt lat="44.49917" lon="1.60387">
        <ele>308</ele>
        <time>2018-03-25T20:55:47Z</time>
      </trkpt>
      <trkpt lat="44.49822" lon="1.60319">
        <ele>306</ele>
        <time>2018-03-25T20:56:47Z</time>
      </trkpt>
      <trkpt lat="44.49727" lon="1.60214">
        <ele>307</ele>
        <time>2018-03-25T20:57:47Z</time>
      </trkpt>
      <trkpt lat="44.49479" lon="1.60098">
        <ele>291</ele>
        <time>2018-03-25T20:58:47Z</time>
      </trkpt>
      <trkpt lat="44.49392" lon="1.59992">
        <ele>288</ele>
        <time>2018-03-25T20:59:47Z</time>
      </trkpt>
      <trkpt lat="44.49298" lon="1.5993">
        <ele>278</ele>
        <time>2018-03-25T21:00:47Z</time>
      </trkpt>
      <trkpt lat="44.49202" lon="1.59819">
        <ele>273</ele>
        <time>2018-03-25T21:01:47Z</time>
      </trkpt>
      <trkpt lat="44.49144" lon="1.59807">
        <ele>269</ele>
        <time>2018-03-25T21:02:47Z</time>
      </trkpt>
      <trkpt lat="44.49178" lon="1.59499">
        <ele>277</ele>
        <time>2018-03-25T21:03:47Z</time>
      </trkpt>
      <trkpt lat="44.49159" lon="1.59405">
        <ele>277</ele>
        <time>2018-03-25T21:04:47Z</time>
      </trkpt>
      <trkpt lat="44.4909" lon="1.59211">
        <ele>272</ele>
        <time>2018-03-25T21:05:47Z</time>
      </trkpt>
      <trkpt lat="44.49175" lon="1.59153">
        <ele>259</ele>
        <time>2018-03-25T21:06:47Z</time>
      </trkpt>
      <trkpt lat="44.49187" lon="1.58952">
        <ele>230</ele>
        <time>2018-03-25T21:07:47Z</time>
      </trkpt>
      <trkpt lat="44.49263" lon="1.58781">
        <ele>199</ele>
        <time>2018-03-25T21:08:47Z</time>
      </trkpt>
      <trkpt lat="44.49221" lon="1.58625">
        <ele>187</ele>
        <time>2018-03-25T21:09:47Z</time>
      </trkpt>
      <trkpt lat="44.4914" lon="1.58601">
        <ele>186</ele>
        <time>2018-03-25T21:10:47Z</time>
      </trkpt>
      <trkpt lat="44.4905" lon="1.58571">
        <ele>183</ele>
        <time>2018-03-25T21:11:47Z</time>
      </trkpt>
      <trkpt lat="44.48884" lon="1.58604">
        <ele>179</ele>
        <time>2018-03-25T21:12:47Z</time>
      </trkpt>
      <trkpt lat="44.4878" lon="1.58593">
        <ele>186</ele>
        <time>2018-03-25T21:13:47Z</time>
      </trkpt>
      <trkpt lat="44.48727" lon="1.58688">
        <ele>175</ele>
        <time>2018-03-25T21:14:47Z</time>
      </trkpt>
      <trkpt lat="44.48687" lon="1.58732">
        <ele>175</ele>
        <time>2018-03-25T21:15:47Z</time>
      </trkpt>
      <trkpt lat="44.48656" lon="1.58827">
        <ele>168</ele>
        <time>2018-03-25T21:16:47Z</time>
      </trkpt>
      <trkpt lat="44.48585" lon="1.58903">
        <ele>165</ele>
        <time>2018-03-25T21:17:47Z</time>
      </trkpt>
      <trkpt lat="44.48545" lon="1.58973">
        <ele>162</ele>
        <time>2018-03-25T21:18:47Z</time>
      </trkpt>
      <trkpt lat="44.48347" lon="1.59032">
        <ele>156</ele>
        <time>2018-03-25T21:19:47Z</time>
      </trkpt>
      <trkpt lat="44.48301" lon="1.58794">
        <ele>200</ele>
        <time>2018-03-25T21:20:47Z</time>
      </trkpt>
      <trkpt lat="44.48237" lon="1.58726">
        <ele>215</ele>
        <time>2018-03-25T21:21:47Z</time>
      </trkpt>
      <trkpt lat="44.48166" lon="1.5879">
        <ele>214</ele>
        <time>2018-03-25T21:22:47Z</time>
      </trkpt>
      <trkpt lat="44.48107" lon="1.58765">
        <ele>219</ele>
        <time>2018-03-25T21:23:47Z</time>
      </trkpt>
      <trkpt lat="44.48076" lon="1.58759">
        <ele>219</ele>
        <time>2018-03-25T21:24:47Z</time>
      </trkpt>
      <trkpt lat="44.48119" lon="1.58589">
        <ele>233</ele>
        <time>2018-03-25T21:25:47Z</time>
      </trkpt>
      <trkpt lat="44.48155" lon="1.58507">
        <ele>245</ele>
        <time>2018-03-25T21:26:47Z</time>
      </trkpt>
      <trkpt lat="44.48199" lon="1.58444">
        <ele>252</ele>
        <time>2018-03-25T21:27:47Z</time>
      </trkpt>
      <trkpt lat="44.48149" lon="1.584">
        <ele>253</ele>
        <time>2018-03-25T21:28:47Z</time>
      </trkpt>
      <trkpt lat="44.48122" lon="1.58332">
        <ele>253</ele>
        <time>2018-03-25T21:29:47Z</time>
      </trkpt>
      <trkpt lat="44.48098" lon="1.58144">
        <ele>245</ele>
        <time>2018-03-25T21:30:47Z</time>
      </trkpt>
      <trkpt lat="44.48143" lon="1.58043">
        <ele>252</ele>
        <time>2018-03-25T21:31:47Z</time>
      </trkpt>
      <trkpt lat="44.48142" lon="1.57992">
        <ele>256</ele>
        <time>2018-03-25T21:32:47Z</time>
      </trkpt>
      <trkpt lat="44.48061" lon="1.57981">
        <ele>241</ele>
        <time>2018-03-25T21:33:47Z</time>
      </trkpt>
      <trkpt lat="44.48015" lon="1.57831">
        <ele>232</ele>
        <time>2018-03-25T21:34:47Z</time>
      </trkpt>
      <trkpt lat="44.48005" lon="1.57686">
        <ele>234</ele>
        <time>2018-03-25T21:35:47Z</time>
      </trkpt>
      <trkpt lat="44.47876" lon="1.57236">
        <ele>238</ele>
        <time>2018-03-25T21:36:47Z</time>
      </trkpt>
      <trkpt lat="44.47844" lon="1.57092">
        <ele>245</ele>
        <time>2018-03-25T21:37:47Z</time>
      </trkpt>
      <trkpt lat="44.4787" lon="1.56966">
        <ele>235</ele>
        <time>2018-03-25T21:38:47Z</time>
      </trkpt>
      <trkpt lat="44.47996" lon="1.56964">
        <ele>239</ele>
        <time>2018-03-25T21:39:47Z</time>
      </trkpt>
      <trkpt lat="44.48161" lon="1.56861">
        <ele>233</ele>
        <time>2018-03-25T21:40:47Z</time>
      </trkpt>
      <trkpt lat="44.48359" lon="1.56846">
        <ele>235</ele>
        <time>2018-03-25T21:41:47Z</time>
      </trkpt>
      <trkpt lat="44.48632" lon="1.56679">
        <ele>235</ele>
        <time>2018-03-25T21:42:47Z</time>
      </trkpt>
      <trkpt lat="44.48681" lon="1.56534">
        <ele>233</ele>
        <time>2018-03-25T21:43:47Z</time>
      </trkpt>
      <trkpt lat="44.48752" lon="1.56433">
        <ele>239</ele>
        <time>2018-03-25T21:44:47Z</time>
      </trkpt>
      <trkpt lat="44.48936" lon="1.56355">
        <ele>247</ele>
        <time>2018-03-25T21:45:47Z</time>
      </trkpt>
      <trkpt lat="44.49016" lon="1.56278">
        <ele>250</ele>
        <time>2018-03-25T21:46:47Z</time>
      </trkpt>
      <trkpt lat="44.48937" lon="1.5594">
        <ele>234</ele>
        <time>2018-03-25T21:47:47Z</time>
      </trkpt>
      <trkpt lat="44.48932" lon="1.55902">
        <ele>231</ele>
        <time>2018-03-25T21:48:47Z</time>
      </trkpt>
      <trkpt lat="44.48855" lon="1.55765">
        <ele>211</ele>
        <time>2018-03-25T21:49:47Z</time>
      </trkpt>
      <trkpt lat="44.48808" lon="1.55533">
        <ele>173</ele>
        <time>2018-03-25T21:50:47Z</time>
      </trkpt>
      <trkpt lat="44.48673" lon="1.55523">
        <ele>167</ele>
        <time>2018-03-25T21:51:47Z</time>
      </trkpt>
      <trkpt lat="44.48673" lon="1.55479">
        <ele>158</ele>
        <time>2018-03-25T21:52:47Z</time>
      </trkpt>
      <trkpt lat="44.48804" lon="1.55477">
        <ele>158</ele>
        <time>2018-03-25T21:53:47Z</time>
      </trkpt>
      <trkpt lat="44.48736" lon="1.55434">
        <ele>151</ele>
        <time>2018-03-25T21:54:47Z</time>
      </trkpt>
      <trkpt lat="44.48808" lon="1.55408">
        <ele>141</ele>
        <time>2018-03-25T21:55:47Z</time>
      </trkpt>
      <trkpt lat="44.48568" lon="1.55298">
        <ele>132</ele>
        <time>2018-03-25T21:56:47Z</time>
      </trkpt>
      <trkpt lat="44.48591" lon="1.55248">
        <ele>135</ele>
        <time>2018-03-25T21:57:47Z</time>
      </trkpt>
      <trkpt lat="44.48451" lon="1.55155">
        <ele>143</ele>
        <time>2018-03-25T21:58:47Z</time>
      </trkpt>
      <trkpt lat="44.4832" lon="1.55182">
        <ele>132</ele>
        <time>2018-03-25T21:59:47Z</time>
      </trkpt>
      <trkpt lat="44.48116" lon="1.55499">
        <ele>138</ele>
        <time>2018-03-25T22:00:47Z</time>
      </trkpt>
      <trkpt lat="44.48061" lon="1.5545">
        <ele>134</ele>
        <time>2018-03-25T22:01:47Z</time>
      </trkpt>
      <trkpt lat="44.47967" lon="1.55489">
        <ele>140</ele>
        <time>2018-03-25T22:02:47Z</time>
      </trkpt>
      <trkpt lat="44.47937" lon="1.55615">
        <ele>156</ele>
        <time>2018-03-25T22:03:47Z</time>
      </trkpt>
      <trkpt lat="44.47712" lon="1.55706">
        <ele>152</ele>
        <time>2018-03-25T22:04:47Z</time>
      </trkpt>
      <trkpt lat="44.47727" lon="1.55812">
        <ele>150</ele>
        <time>2018-03-25T22:05:47Z</time>
      </trkpt>
      <trkpt lat="44.47691" lon="1.5585">
        <ele>147</ele>
        <time>2018-03-25T22:06:47Z</time>
      </trkpt>
      <trkpt lat="44.47614" lon="1.55782">
        <ele>168</ele>
        <time>2018-03-25T22:07:47Z</time>
      </trkpt>
      <trkpt lat="44.47559" lon="1.55651">
        <ele>189</ele>
        <time>2018-03-25T22:08:47Z</time>
      </trkpt>
      <trkpt lat="44.47542" lon="1.55752">
        <ele>198</ele>
        <time>2018-03-25T22:09:47Z</time>
      </trkpt>
      <trkpt lat="44.47468" lon="1.55502">
        <ele>206</ele>
        <time>2018-03-25T22:10:47Z</time>
      </trkpt>
      <trkpt lat="44.47423" lon="1.55477">
        <ele>210</ele>
        <time>2018-03-25T22:11:47Z</time>
      </trkpt>
      <trkpt lat="44.47374" lon="1.55509">
        <ele>226</ele>
        <time>2018-03-25T22:12:47Z</time>
      </trkpt>
      <trkpt lat="44.47312" lon="1.5563">
        <ele>247</ele>
        <time>2018-03-25T22:13:47Z</time>
      </trkpt>
      <trkpt lat="44.47357" lon="1.55729">
        <ele>247</ele>
        <time>2018-03-25T22:14:47Z</time>
      </trkpt>
      <trkpt lat="44.47353" lon="1.5578">
        <ele>237</ele>
        <time>2018-03-25T22:15:47Z</time>
      </trkpt>
      <trkpt lat="44.47286" lon="1.55743">
        <ele>253</ele>
        <time>2018-03-25T22:16:47Z</time>
      </trkpt>
      <trkpt lat="44.47165" lon="1.55795">
        <ele>252</ele>
        <time>2018-03-25T22:17:47Z</time>
      </trkpt>
      <trkpt lat="44.46703" lon="1.56015">
        <ele>298</ele>
        <time>2018-03-25T22:18:47Z</time>
      </trkpt>
      <trkpt lat="44.46579" lon="1.5623">
        <ele>311</ele>
        <time>2018-03-25T22:19:47Z</time>
      </trkpt>
      <trkpt lat="44.46493" lon="1.56256">
        <ele>308</ele>
        <time>2018-03-25T22:20:47Z</time>
      </trkpt>
      <trkpt lat="44.4644" lon="1.56364">
        <ele>298</ele>
        <time>2018-03-25T22:21:47Z</time>
      </trkpt>
      <trkpt lat="44.46185" lon="1.566">
        <ele>293</ele>
        <time>2018-03-25T22:22:47Z</time>
      </trkpt>
      <trkpt lat="44.45975" lon="1.56766">
        <ele>304</ele>
        <time>2018-03-25T22:23:47Z</time>
      </trkpt>
      <trkpt lat="44.45859" lon="1.5683">
        <ele>304</ele>
        <time>2018-03-25T22:24:47Z</time>
      </trkpt>
      <trkpt lat="44.45563" lon="1.56966">
        <ele>320</ele>
        <time>2018-03-25T22:25:47Z</time>
      </trkpt>
      <trkpt lat="44.45487" lon="1.57061">
        <ele>321</ele>
        <time>2018-03-25T22:26:47Z</time>
      </trkpt>
      <trkpt lat="44.45384" lon="1.5715">
        <ele>320</ele>
        <time>2018-03-25T22:27:47Z</time>
      </trkpt>
      <trkpt lat="44.4534" lon="1.57226">
        <ele>318</ele>
        <time>2018-03-25T22:28:47Z</time>
      </trkpt>
      <trkpt lat="44.45354" lon="1.57283">
        <ele>317</ele>
        <time>2018-03-25T22:29:47Z</time>
      </trkpt>
      <trkpt lat="44.45354" lon="1.57333">
        <ele>316</ele>
        <time>2018-03-25T22:30:47Z</time>
      </trkpt>
      <trkpt lat="44.45212" lon="1.57567">
        <ele>323</ele>
        <time>2018-03-25T22:31:47Z</time>
      </trkpt>
      <trkpt lat="44.45146" lon="1.578">
        <ele>328</ele>
        <time>2018-03-25T22:32:47Z</time>
      </trkpt>
      <trkpt lat="44.45035" lon="1.57971">
        <ele>326</ele>
        <time>2018-03-25T22:33:47Z</time>
      </trkpt>
      <trkpt lat="44.45018" lon="1.58191">
        <ele>319</ele>
        <time>2018-03-25T22:34:47Z</time>
      </trkpt>
      <trkpt lat="44.45168" lon="1.58384">
        <ele>316</ele>
        <time>2018-03-25T22:35:47Z</time>
      </trkpt>
      <trkpt lat="44.45251" lon="1.58671">
        <ele>302</ele>
        <time>2018-03-25T22:36:47Z</time>
      </trkpt>
      <trkpt lat="44.45359" lon="1.58739">
        <ele>291</ele>
        <time>2018-03-25T22:37:47Z</time>
      </trkpt>
      <trkpt lat="44.45472" lon="1.5875">
        <ele>276</ele>
        <time>2018-03-25T22:38:47Z</time>
      </trkpt>
      <trkpt lat="44.45558" lon="1.58868">
        <ele>253</ele>
        <time>2018-03-25T22:39:47Z</time>
      </trkpt>
      <trkpt lat="44.45589" lon="1.58811">
        <ele>253</ele>
        <time>2018-03-25T22:40:47Z</time>
      </trkpt>
      <trkpt lat="44.45579" lon="1.58667">
        <ele>247</ele>
        <time>2018-03-25T22:41:47Z</time>
      </trkpt>
      <trkpt lat="44.45533" lon="1.58523">
        <ele>234</ele>
        <time>2018-03-25T22:42:47Z</time>
      </trkpt>
      <trkpt lat="44.45484" lon="1.58505">
        <ele>241</ele>
        <time>2018-03-25T22:43:47Z</time>
      </trkpt>
      <trkpt lat="44.45528" lon="1.58423">
        <ele>234</ele>
        <time>2018-03-25T22:44:47Z</time>
      </trkpt>
      <trkpt lat="44.4555" lon="1.58398">
        <ele>236</ele>
        <time>2018-03-25T22:45:47Z</time>
      </trkpt>
      <trkpt lat="44.4561" lon="1.58535">
        <ele>227</ele>
        <time>2018-03-25T22:46:47Z</time>
      </trkpt>
      <trkpt lat="44.45732" lon="1.58602">
        <ele>216</ele>
        <time>2018-03-25T22:47:47Z</time>
      </trkpt>
      <trkpt lat="44.45831" lon="1.58733">
        <ele>193</ele>
        <time>2018-03-25T22:48:47Z</time>
      </trkpt>
      <trkpt lat="44.4595" lon="1.58989">
        <ele>171</ele>
        <time>2018-03-25T22:49:47Z</time>
      </trkpt>
      <trkpt lat="44.46058" lon="1.59006">
        <ele>172</ele>
        <time>2018-03-25T22:50:47Z</time>
      </trkpt>
      <trkpt lat="44.46153" lon="1.59061">
        <ele>172</ele>
        <time>2018-03-25T22:51:47Z</time>
      </trkpt>
      <trkpt lat="44.46284" lon="1.59078">
        <ele>162</ele>
        <time>2018-03-25T22:52:47Z</time>
      </trkpt>
      <trkpt lat="44.46279" lon="1.59122">
        <ele>167</ele>
        <time>2018-03-25T22:53:47Z</time>
      </trkpt>
      <trkpt lat="44.46149" lon="1.59099">
        <ele>175</ele>
        <time>2018-03-25T22:54:47Z</time>
      </trkpt>
      <trkpt lat="44.46019" lon="1.59157">
        <ele>200</ele>
        <time>2018-03-25T22:55:47Z</time>
      </trkpt>
      <trkpt lat="44.45635" lon="1.59552">
        <ele>273</ele>
        <time>2018-03-25T22:56:47Z</time>
      </trkpt>
      <trkpt lat="44.4556" lon="1.59753">
        <ele>286</ele>
        <time>2018-03-25T22:57:47Z</time>
      </trkpt>
      <trkpt lat="44.45461" lon="1.59868">
        <ele>287</ele>
        <time>2018-03-25T22:58:47Z</time>
      </trkpt>
      <trkpt lat="44.45403" lon="1.59925">
        <ele>289</ele>
        <time>2018-03-25T22:59:47Z</time>
      </trkpt>
      <trkpt lat="44.45314" lon="1.60064">
        <ele>289</ele>
        <time>2018-03-25T23:00:47Z</time>
      </trkpt>
      <trkpt lat="44.45293" lon="1.60171">
        <ele>287</ele>
        <time>2018-03-25T23:01:47Z</time>
      </trkpt>
      <trkpt lat="44.45151" lon="1.60468">
        <ele>291</ele>
        <time>2018-03-25T23:02:47Z</time>
      </trkpt>
      <trkpt lat="44.45178" lon="1.60537">
        <ele>291</ele>
        <time>2018-03-25T23:03:47Z</time>
      </trkpt>
      <trkpt lat="44.45157" lon="1.60663">
        <ele>309</ele>
        <time>2018-03-25T23:04:47Z</time>
      </trkpt>
      <trkpt lat="44.45153" lon="1.60801">
        <ele>324</ele>
        <time>2018-03-25T23:05:47Z</time>
      </trkpt>
      <trkpt lat="44.45122" lon="1.60952">
        <ele>344</ele>
        <time>2018-03-25T23:06:47Z</time>
      </trkpt>
      <trkpt lat="44.45092" lon="1.61072">
        <ele>348</ele>
        <time>2018-03-25T23:07:47Z</time>
      </trkpt>
      <trkpt lat="44.45214" lon="1.61177">
        <ele>353</ele>
        <time>2018-03-25T23:08:47Z</time>
      </trkpt>
      <trkpt lat="44.45323" lon="1.61313">
        <ele>346</ele>
        <time>2018-03-25T23:09:47Z</time>
      </trkpt>
      <trkpt lat="44.45378" lon="1.61438">
        <ele>340</ele>
        <time>2018-03-25T23:10:47Z</time>
      </trkpt>
      <trkpt lat="44.45392" lon="1.61564">
        <ele>339</ele>
        <time>2018-03-25T23:11:47Z</time>
      </trkpt>
      <trkpt lat="44.45451" lon="1.61682">
        <ele>339</ele>
        <time>2018-03-25T23:12:47Z</time>
      </trkpt>
      <trkpt lat="44.45501" lon="1.61751">
        <ele>344</ele>
        <time>2018-03-25T23:13:47Z</time>
      </trkpt>
      <trkpt lat="44.45542" lon="1.61913">
        <ele>347</ele>
        <time>2018-03-25T23:14:47Z</time>
      </trkpt>
      <trkpt lat="44.45534" lon="1.62008">
        <ele>346</ele>
        <time>2018-03-25T23:15:47Z</time>
      </trkpt>
      <trkpt lat="44.45583" lon="1.61963">
        <ele>348</ele>
        <time>2018-03-25T23:16:47Z</time>
      </trkpt>
      <trkpt lat="44.45637" lon="1.61887">
        <ele>344</ele>
        <time>2018-03-25T23:17:47Z</time>
      </trkpt>
      <trkpt lat="44.45718" lon="1.6188">
        <ele>338</ele>
        <time>2018-03-25T23:18:47Z</time>
      </trkpt>
      <trkpt lat="44.45888" lon="1.61727">
        <ele>325</ele>
        <time>2018-03-25T23:19:47Z</time>
      </trkpt>
      <trkpt lat="44.46021" lon="1.61518">
        <ele>313</ele>
        <time>2018-03-25T23:20:47Z</time>
      </trkpt>
      <trkpt lat="44.46029" lon="1.61424">
        <ele>313</ele>
        <time>2018-03-25T23:21:47Z</time>
      </trkpt>
      <trkpt lat="44.46137" lon="1.61316">
        <ele>307</ele>
        <time>2018-03-25T23:22:47Z</time>
      </trkpt>
      <trkpt lat="44.46241" lon="1.6139">
        <ele>298</ele>
        <time>2018-03-25T23:23:47Z</time>
      </trkpt>
      <trkpt lat="44.46583" lon="1.61467">
        <ele>308</ele>
        <time>2018-03-25T23:24:47Z</time>
      </trkpt>
      <trkpt lat="44.46646" lon="1.6151">
        <ele>307</ele>
        <time>2018-03-25T23:25:47Z</time>
      </trkpt>
      <trkpt lat="44.467" lon="1.61541">
        <ele>303</ele>
        <time>2018-03-25T23:26:47Z</time>
      </trkpt>
      <trkpt lat="44.46722" lon="1.61503">
        <ele>304</ele>
        <time>2018-03-25T23:27:47Z</time>
      </trkpt>
      <trkpt lat="44.4687" lon="1.61407">
        <ele>288</ele>
        <time>2018-03-25T23:28:47Z</time>
      </trkpt>
      <trkpt lat="44.46982" lon="1.61273">
        <ele>263</ele>
        <time>2018-03-25T23:29:47Z</time>
      </trkpt>
      <trkpt lat="44.47125" lon="1.61253">
        <ele>233</ele>
        <time>2018-03-25T23:30:47Z</time>
      </trkpt>
      <trkpt lat="44.4727" lon="1.61282">
        <ele>204</ele>
        <time>2018-03-25T23:31:47Z</time>
      </trkpt>
      <trkpt lat="44.47328" lon="1.61269">
        <ele>192</ele>
        <time>2018-03-25T23:32:47Z</time>
      </trkpt>
      <trkpt lat="44.47404" lon="1.61186">
        <ele>175</ele>
        <time>2018-03-25T23:33:47Z</time>
      </trkpt>
      <trkpt lat="44.47327" lon="1.61143">
        <ele>172</ele>
        <time>2018-03-25T23:34:47Z</time>
      </trkpt>
      <trkpt lat="44.47408" lon="1.61073">
        <ele>162</ele>
        <time>2018-03-25T23:35:47Z</time>
      </trkpt>
      <trkpt lat="44.47407" lon="1.60948">
        <ele>137</ele>
        <time>2018-03-25T23:36:47Z</time>
      </trkpt>
      <trkpt lat="44.47641" lon="1.61014">
        <ele>137</ele>
        <time>2018-03-25T23:37:47Z</time>
      </trkpt>
      <trkpt lat="44.47781" lon="1.61049">
        <ele>136</ele>
        <time>2018-03-25T23:38:47Z</time>
      </trkpt>
      <trkpt lat="44.47961" lon="1.61148">
        <ele>143</ele>
        <time>2018-03-25T23:39:47Z</time>
      </trkpt>
      <trkpt lat="44.48128" lon="1.61171">
        <ele>139</ele>
        <time>2018-03-25T23:40:47Z</time>
      </trkpt>
      <trkpt lat="44.48208" lon="1.61151">
        <ele>137</ele>
        <time>2018-03-25T23:41:47Z</time>
      </trkpt>
      <trkpt lat="44.48335" lon="1.61187">
        <ele>139</ele>
        <time>2018-03-25T23:42:47Z</time>
      </trkpt>
      <trkpt lat="44.48447" lon="1.61248">
        <ele>137</ele>
        <time>2018-03-25T23:43:47Z</time>
      </trkpt>
      <trkpt lat="44.4852" lon="1.61398">
        <ele>141</ele>
        <time>2018-03-25T23:44:47Z</time>
      </trkpt>
      <trkpt lat="44.4858" lon="1.61586">
        <ele>142</ele>
        <time>2018-03-25T23:45:47Z</time>
      </trkpt>
      <trkpt lat="44.48531" lon="1.61637">
        <ele>149</ele>
        <time>2018-03-25T23:46:47Z</time>
      </trkpt>
      <trkpt lat="44.48522" lon="1.61699">
        <ele>150</ele>
        <time>2018-03-25T23:47:47Z</time>
      </trkpt>
      <trkpt lat="44.48438" lon="1.61807">
        <ele>153</ele>
        <time>2018-03-25T23:48:47Z</time>
      </trkpt>
      <trkpt lat="44.48516" lon="1.62102">
        <ele>158</ele>
        <time>2018-03-25T23:49:47Z</time>
      </trkpt>
      <trkpt lat="44.48557" lon="1.62164">
        <ele>156</ele>
        <time>2018-03-25T23:50:47Z</time>
      </trkpt>
      <trkpt lat="44.48639" lon="1.62332">
        <ele>148</ele>
        <time>2018-03-25T23:51:47Z</time>
      </trkpt>
      <trkpt lat="44.4864" lon="1.62546">
        <ele>154</ele>
        <time>2018-03-25T23:52:47Z</time>
      </trkpt>
      <trkpt lat="44.4857" lon="1.62786">
        <ele>151</ele>
        <time>2018-03-25T23:53:47Z</time>
      </trkpt>
      <trkpt lat="44.48553" lon="1.6288">
        <ele>151</ele>
        <time>2018-03-25T23:54:47Z</time>
      </trkpt>
      <trkpt lat="44.48491" lon="1.63025">
        <ele>153</ele>
        <time>2018-03-25T23:55:47Z</time>
      </trkpt>
      <trkpt lat="44.48496" lon="1.63176">
        <ele>153</ele>
        <time>2018-03-25T23:56:47Z</time>
      </trkpt>
      <trkpt lat="44.48515" lon="1.63289">
        <ele>154</ele>
        <time>2018-03-25T23:57:47Z</time>
      </trkpt>
      <trkpt lat="44.48507" lon="1.63414">
        <ele>157</ele>
        <time>2018-03-25T23:58:47Z</time>
      </trkpt>
      <trkpt lat="44.4848" lon="1.63559">
        <ele>155</ele>
        <time>2018-03-25T23:59:47Z</time>
      </trkpt>
      <trkpt lat="44.48486" lon="1.63679">
        <ele>155</ele>
        <time>2018-03-26T00:00:47Z</time>
      </trkpt>
      <trkpt lat="44.485" lon="1.63735">
        <ele>155</ele>
        <time>2018-03-26T00:01:47Z</time>
      </trkpt>
      <trkpt lat="44.48491" lon="1.63823">
        <ele>151</ele>
        <time>2018-03-26T00:02:47Z</time>
      </trkpt>
      <trkpt lat="44.48523" lon="1.63873">
        <ele>145</ele>
        <time>2018-03-26T00:03:47Z</time>
      </trkpt>
      <trkpt lat="44.48487" lon="1.63955">
        <ele>147</ele>
        <time>2018-03-26T00:04:47Z</time>
      </trkpt>
      <trkpt lat="44.48515" lon="1.64049">
        <ele>142</ele>
        <time>2018-03-26T00:05:47Z</time>
      </trkpt>
      <trkpt lat="44.48485" lon="1.64212">
        <ele>140</ele>
        <time>2018-03-26T00:06:47Z</time>
      </trkpt>
      <trkpt lat="44.48611" lon="1.64343">
        <ele>153</ele>
        <time>2018-03-26T00:07:47Z</time>
      </trkpt>
      <trkpt lat="44.48501" lon="1.64602">
        <ele>169</ele>
        <time>2018-03-26T00:08:47Z</time>
      </trkpt>
      <trkpt lat="44.48366" lon="1.64729">
        <ele>165</ele>
        <time>2018-03-26T00:09:47Z</time>
      </trkpt>
      <trkpt lat="44.47931" lon="1.64923">
        <ele>140</ele>
        <time>2018-03-26T00:10:47Z</time>
      </trkpt>
      <trkpt lat="44.47901" lon="1.65011">
        <ele>146</ele>
        <time>2018-03-26T00:11:47Z</time>
      </trkpt>
      <trkpt lat="44.47905" lon="1.65074">
        <ele>146</ele>
        <time>2018-03-26T00:12:47Z</time>
      </trkpt>
      <trkpt lat="44.48063" lon="1.65028">
        <ele>154</ele>
        <time>2018-03-26T00:13:47Z</time>
      </trkpt>
      <trkpt lat="44.48192" lon="1.64932">
        <ele>166</ele>
        <time>2018-03-26T00:14:47Z</time>
      </trkpt>
      <trkpt lat="44.48255" lon="1.6495">
        <ele>172</ele>
        <time>2018-03-26T00:15:47Z</time>
      </trkpt>
      <trkpt lat="44.48367" lon="1.6488">
        <ele>192</ele>
        <time>2018-03-26T00:16:47Z</time>
      </trkpt>
      <trkpt lat="44.4839" lon="1.64905">
        <ele>197</ele>
        <time>2018-03-26T00:17:47Z</time>
      </trkpt>
      <trkpt lat="44.4848" lon="1.64859">
        <ele>219</ele>
        <time>2018-03-26T00:18:47Z</time>
      </trkpt>
      <trkpt lat="44.48497" lon="1.64815">
        <ele>227</ele>
        <time>2018-03-26T00:19:47Z</time>
      </trkpt>
      <trkpt lat="44.48543" lon="1.64852">
        <ele>232</ele>
        <time>2018-03-26T00:20:47Z</time>
      </trkpt>
      <trkpt lat="44.48583" lon="1.64783">
        <ele>244</ele>
        <time>2018-03-26T00:21:47Z</time>
      </trkpt>
      <trkpt lat="44.48808" lon="1.64855">
        <ele>269</ele>
        <time>2018-03-26T00:22:47Z</time>
      </trkpt>
      <trkpt lat="44.48925" lon="1.64879">
        <ele>276</ele>
        <time>2018-03-26T00:23:47Z</time>
      </trkpt>
      <trkpt lat="44.49208" lon="1.64794">
        <ele>265</ele>
        <time>2018-03-26T00:24:47Z</time>
      </trkpt>
      <trkpt lat="44.49284" lon="1.64818">
        <ele>261</ele>
        <time>2018-03-26T00:25:47Z</time>
      </trkpt>
      <trkpt lat="44.49414" lon="1.64779">
        <ele>264</ele>
        <time>2018-03-26T00:26:47Z</time>
      </trkpt>
      <trkpt lat="44.49441" lon="1.64709">
        <ele>266</ele>
        <time>2018-03-26T00:27:47Z</time>
      </trkpt>
      <trkpt lat="44.49386" lon="1.64572">
        <ele>257</ele>
        <time>2018-03-26T00:28:47Z</time>
      </trkpt>
      <trkpt lat="44.49386" lon="1.64509">
        <ele>256</ele>
        <time>2018-03-26T00:29:47Z</time>
      </trkpt>
      <trkpt lat="44.49308" lon="1.64334">
        <ele>254</ele>
        <time>2018-03-26T00:30:47Z</time>
      </trkpt>
      <trkpt lat="44.49412" lon="1.64364">
        <ele>272</ele>
        <time>2018-03-26T00:31:47Z</time>
      </trkpt>
      <trkpt lat="44.49658" lon="1.64236">
        <ele>312</ele>
        <time>2018-03-26T00:32:47Z</time>
      </trkpt>
      <trkpt lat="44.49717" lon="1.64241">
        <ele>316</ele>
        <time>2018-03-26T00:33:47Z</time>
      </trkpt>
      <trkpt lat="44.49735" lon="1.64279">
        <ele>315</ele>
        <time>2018-03-26T00:34:47Z</time>
      </trkpt>
      <trkpt lat="44.49812" lon="1.6429">
        <ele>323</ele>
        <time>2018-03-26T00:35:47Z</time>
      </trkpt>
      <trkpt lat="44.49848" lon="1.64397">
        <ele>326</ele>
        <time>2018-03-26T00:36:47Z</time>
      </trkpt>
      <trkpt lat="44.50062" lon="1.64055">
        <ele>344</ele>
        <time>2018-03-26T00:37:47Z</time>
      </trkpt>
      <trkpt lat="44.50209" lon="1.63896">
        <ele>347</ele>
        <time>2018-03-26T00:38:47Z</time>
      </trkpt>
      <trkpt lat="44.50393" lon="1.63749">
        <ele>344</ele>
        <time>2018-03-26T00:39:47Z</time>
      </trkpt>
      <trkpt lat="44.50567" lon="1.63596">
        <ele>334</ele>
        <time>2018-03-26T00:40:47Z</time>
      </trkpt>
      <trkpt lat="44.50665" lon="1.63387">
        <ele>323</ele>
        <time>2018-03-26T00:41:47Z</time>
      </trkpt>
    </trkseg>
  </trk>
</gpx>